Time;durP1;ratioP1;P1;durP2;ratioP2;P2;SDS_P1;SDS_P2;PMS_P1;PMS_P2;Temp;Humidity;BMP_temperature;BMP_pressure;BME280_temperature;BME280_humidity;BME280_pressure;Samples;Min_cycle;Max_cycle;Signal;HPM_P1;HPM_P2
2022/09/29 00:00:58;;;;;;;2.58;1.10;;;;;;;;;;4971876;28;20059;-67
2022/09/29 00:03:24;;;;;;;1.60;1.00;;;;;;;;;;4973037;28;20061;-66
2022/09/29 00:05:52;;;;;;;2.15;1.30;;;;;;;;;;4973127;28;20130;-66
2022/09/29 00:08:19;;;;;;;1.65;0.90;;;;;;;;;;4972829;28;20066;-67
2022/09/29 00:10:46;;;;;;;1.65;0.95;;;;;;;;;;4972698;28;20063;-67
2022/09/29 00:13:13;;;;;;;1.95;1.42;;;;;;;;;;4972893;28;20678;-67
2022/09/29 00:15:40;;;;;;;0.90;0.90;;;;;;;;;;4972947;28;20050;-67
2022/09/29 00:18:07;;;;;;;1.47;1.20;;;;;;;;;;4973918;28;20055;-66
2022/09/29 00:20:41;;;;;;;2.03;1.17;;;;;;;;;;4972660;28;20054;-66
2022/09/29 00:23:07;;;;;;;1.35;1.25;;;;;;;;;;4972900;28;20081;-66
2022/09/29 00:25:33;;;;;;;1.75;1.20;;;;;;;;;;4973017;28;20057;-67
2022/09/29 00:28:00;;;;;;;1.40;1.10;;;;;;;;;;4976496;28;20047;-67
2022/09/29 00:30:26;;;;;;;1.42;1.00;;;;;;;;;;4976421;28;20051;-67
2022/09/29 00:32:53;;;;;;;1.67;1.40;;;;;;;;;;4976625;28;20400;-67
2022/09/29 00:35:19;;;;;;;1.88;1.10;;;;;;;;;;4976400;28;20058;-67
2022/09/29 00:37:45;;;;;;;1.15;0.90;;;;;;;;;;4976441;28;20413;-67
2022/09/29 00:40:12;;;;;;;1.95;0.90;;;;;;;;;;4976643;28;20056;-67
2022/09/29 00:42:38;;;;;;;2.05;1.00;;;;;;;;;;4976188;28;20051;-67
2022/09/29 00:45:23;;;;;;;2.85;1.20;;;;;;;;;;4976227;28;20059;-66
2022/09/29 00:48:03;;;;;;;1.58;1.10;;;;;;;;;;4976367;28;20465;-67
2022/09/29 00:50:41;;;;;;;1.05;1.05;;;;;;;;;;4976086;28;20049;-67
2022/09/29 00:53:11;;;;;;;1.30;1.20;;;;;;;;;;4976034;28;20050;-67
2022/09/29 00:55:46;;;;;;;1.20;1.10;;;;;;;;;;4976544;28;20134;-67
2022/09/29 00:58:15;;;;;;;0.85;0.80;;;;;;;;;;4976136;28;20058;-66
2022/09/29 01:00:42;;;;;;;1.17;1.10;;;;;;;;;;4975879;28;20065;-66
2022/09/29 01:03:11;;;;;;;1.15;0.90;;;;;;;;;;4975972;28;20051;-67
2022/09/29 01:05:42;;;;;;;2.90;1.05;;;;;;;;;;4976088;28;20054;-67
2022/09/29 01:08:12;;;;;;;1.08;0.98;;;;;;;;;;4975796;28;20479;-67
2022/09/29 01:10:40;;;;;;;1.30;0.88;;;;;;;;;;4975674;28;20057;-67
2022/09/29 01:13:06;;;;;;;0.98;0.98;;;;;;;;;;4976099;28;20047;-67
2022/09/29 01:15:33;;;;;;;1.08;1.00;;;;;;;;;;4975891;28;20038;-66
2022/09/29 01:17:59;;;;;;;2.30;1.33;;;;;;;;;;4975940;28;20054;-66
2022/09/29 01:20:27;;;;;;;2.00;1.30;;;;;;;;;;4975748;28;20388;-66
2022/09/29 01:23:02;;;;;;;2.88;1.38;;;;;;;;;;4975747;28;20058;-66
2022/09/29 01:25:43;;;;;;;2.40;1.33;;;;;;;;;;4975609;28;20407;-67
2022/09/29 01:28:29;;;;;;;1.15;1.15;;;;;;;;;;4975426;28;20058;-66
2022/09/29 01:31:16;;;;;;;1.10;0.90;;;;;;;;;;4975605;28;20039;-66
2022/09/29 01:34:01;;;;;;;1.10;1.00;;;;;;;;;;4975337;28;20050;-66
2022/09/29 01:36:34;;;;;;;1.27;1.17;;;;;;;;;;4975212;28;20042;-67
2022/09/29 01:39:00;;;;;;;1.27;1.20;;;;;;;;;;4975540;28;20064;-66
2022/09/29 01:41:45;;;;;;;1.30;1.20;;;;;;;;;;4975397;28;20498;-67
2022/09/29 01:44:17;;;;;;;1.05;0.95;;;;;;;;;;4975086;28;20050;-67
2022/09/29 01:46:50;;;;;;;2.05;1.42;;;;;;;;;;4975399;28;20058;-67
2022/09/29 01:49:18;;;;;;;2.60;1.20;;;;;;;;;;4975145;28;20042;-67
2022/09/29 01:51:56;;;;;;;2.25;1.20;;;;;;;;;;4975560;28;20050;-67
2022/09/29 01:54:22;;;;;;;;;;;;;;;;;;4975581;28;20066;-67
2022/09/29 01:57:01;;;;;;;1.75;1.30;;;;;;;;;;4975109;28;19941;-67
2022/09/29 01:59:46;;;;;;;1.40;1.30;;;;;;;;;;4973675;28;20051;-67
2022/09/29 02:02:19;;;;;;;2.33;1.38;;;;;;;;;;4975231;28;20065;-66
2022/09/29 02:04:49;;;;;;;2.03;1.25;;;;;;;;;;4974781;28;20491;-67
2022/09/29 02:07:19;;;;;;;2.75;1.77;;;;;;;;;;4974876;28;20054;-67
2022/09/29 02:09:48;;;;;;;3.53;1.33;;;;;;;;;;4974509;28;20522;-67
2022/09/29 02:12:18;;;;;;;1.30;1.20;;;;;;;;;;4974520;28;20050;-67
2022/09/29 02:14:46;;;;;;;1.50;0.90;;;;;;;;;;4975143;28;20387;-67
2022/09/29 02:17:18;;;;;;;1.77;0.80;;;;;;;;;;4974664;28;20042;-67
2022/09/29 02:19:49;;;;;;;2.88;0.70;;;;;;;;;;4974671;28;20054;-66
2022/09/29 02:22:16;;;;;;;1.83;0.82;;;;;;;;;;4974504;28;20051;-66
2022/09/29 02:24:43;;;;;;;2.27;0.60;;;;;;;;;;4974402;28;20058;-66
2022/09/29 02:27:10;;;;;;;0.98;0.60;;;;;;;;;;4974558;28;20281;-66
2022/09/29 02:29:37;;;;;;;1.83;0.63;;;;;;;;;;4974422;28;20049;-67
2022/09/29 02:32:05;;;;;;;1.27;0.50;;;;;;;;;;4974301;28;20050;-66
2022/09/29 02:34:35;;;;;;;1.60;0.57;;;;;;;;;;4974492;28;20053;-66
2022/09/29 02:37:24;;;;;;;1.10;0.70;;;;;;;;;;4974496;28;20046;-67
2022/09/29 02:39:51;;;;;;;2.00;0.57;;;;;;;;;;4972811;28;20522;-66
2022/09/29 02:42:30;;;;;;;2.80;0.90;;;;;;;;;;4974288;28;20054;-66
2022/09/29 02:45:14;;;;;;;1.67;0.90;;;;;;;;;;4974049;28;20066;-66
2022/09/29 02:47:44;;;;;;;0.73;0.70;;;;;;;;;;4973721;28;20526;-66
2022/09/29 02:50:29;;;;;;;1.20;0.60;;;;;;;;;;4973423;28;20049;-66
2022/09/29 02:53:02;;;;;;;2.75;0.65;;;;;;;;;;4973869;28;20495;-66
2022/09/29 02:55:47;;;;;;;0.88;0.60;;;;;;;;;;4974033;28;20046;-66
2022/09/29 02:58:19;;;;;;;1.38;0.47;;;;;;;;;;4974220;28;20058;-66
2022/09/29 03:00:46;;;;;;;0.60;0.60;;;;;;;;;;4973984;28;20388;-66
2022/09/29 03:03:12;;;;;;;2.65;0.70;;;;;;;;;;4973978;28;20411;-66
2022/09/29 03:05:39;;;;;;;2.95;0.68;;;;;;;;;;4973947;28;20054;-67
2022/09/29 03:08:05;;;;;;;0.50;0.50;;;;;;;;;;4973616;28;20506;-66
2022/09/29 03:10:31;;;;;;;0.93;0.60;;;;;;;;;;4973368;28;20062;-67
2022/09/29 03:12:58;;;;;;;0.70;0.50;;;;;;;;;;4973528;28;20491;-67
2022/09/29 03:15:24;;;;;;;1.58;0.65;;;;;;;;;;4973356;28;20487;-67
2022/09/29 03:17:53;;;;;;;1.17;0.60;;;;;;;;;;4973636;28;20047;-67
2022/09/29 03:20:20;;;;;;;1.23;0.50;;;;;;;;;;4973621;28;20047;-67
2022/09/29 03:22:46;;;;;;;1.35;0.70;;;;;;;;;;4973642;28;20043;-67
2022/09/29 03:25:13;;;;;;;2.20;0.63;;;;;;;;;;4973283;28;20506;-67
2022/09/29 03:27:40;;;;;;;0.65;0.40;;;;;;;;;;4973313;28;20407;-67
2022/09/29 03:30:07;;;;;;;1.60;0.45;;;;;;;;;;4973383;28;20047;-67
2022/09/29 03:32:33;;;;;;;1.65;0.55;;;;;;;;;;4973309;28;20055;-66
2022/09/29 03:34:59;;;;;;;1.30;0.60;;;;;;;;;;4973267;28;20051;-66
2022/09/29 03:37:26;;;;;;;1.38;0.70;;;;;;;;;;4973393;28;20050;-67
2022/09/29 03:39:52;;;;;;;0.50;0.40;;;;;;;;;;4973124;28;20058;-66
2022/09/29 03:42:21;;;;;;;0.98;0.40;;;;;;;;;;4973053;28;20059;-66
2022/09/29 03:44:48;;;;;;;1.30;0.40;;;;;;;;;;4973378;28;20046;-66
2022/09/29 03:47:14;;;;;;;1.27;0.47;;;;;;;;;;4973041;28;20061;-67
2022/09/29 03:49:40;;;;;;;2.05;0.25;;;;;;;;;;4973140;28;20479;-66
2022/09/29 03:52:07;;;;;;;0.70;0.20;;;;;;;;;;4973254;28;20057;-66
2022/09/29 03:54:33;;;;;;;0.35;0.10;;;;;;;;;;4973079;28;20039;-67
2022/09/29 03:56:59;;;;;;;1.05;0.20;;;;;;;;;;4973075;28;20050;-67
2022/09/29 03:59:26;;;;;;;0.10;0.10;;;;;;;;;;4972865;28;20062;-66
2022/09/29 04:01:52;;;;;;;0.95;0.10;;;;;;;;;;4973148;28;20058;-67
2022/09/29 04:04:19;;;;;;;0.15;0.00;;;;;;;;;;4973061;28;20059;-66
2022/09/29 04:06:45;;;;;;;0.30;0.20;;;;;;;;;;4972788;28;20410;-66
2022/09/29 04:09:11;;;;;;;0.10;0.10;;;;;;;;;;4972779;28;20387;-66
2022/09/29 04:11:38;;;;;;;0.00;0.00;;;;;;;;;;4972994;28;20043;-66
2022/09/29 04:14:05;;;;;;;0.57;0.00;;;;;;;;;;4972779;28;20054;-67
2022/09/29 04:16:31;;;;;;;0.80;0.20;;;;;;;;;;4972787;28;20062;-66
2022/09/29 04:18:58;;;;;;;0.22;0.10;;;;;;;;;;4972854;28;20054;-66
2022/09/29 04:21:24;;;;;;;0.08;0.00;;;;;;;;;;4972627;28;20059;-66
2022/09/29 04:23:50;;;;;;;0.00;0.00;;;;;;;;;;4972935;28;20058;-66
2022/09/29 04:26:19;;;;;;;0.00;0.00;;;;;;;;;;4972832;28;20055;-66
2022/09/29 04:28:46;;;;;;;0.00;0.00;;;;;;;;;;4972834;28;20402;-66
2022/09/29 04:31:12;;;;;;;0.25;0.00;;;;;;;;;;4972632;28;20491;-66
2022/09/29 04:33:39;;;;;;;0.55;0.00;;;;;;;;;;4972532;28;20058;-66
2022/09/29 04:36:05;;;;;;;0.00;0.00;;;;;;;;;;4972803;28;20050;-66
2022/09/29 04:38:31;;;;;;;0.03;0.03;;;;;;;;;;4972739;28;20058;-67
2022/09/29 04:40:58;;;;;;;0.05;0.00;;;;;;;;;;4972547;28;20061;-66
2022/09/29 04:43:25;;;;;;;0.00;0.00;;;;;;;;;;4972783;28;20051;-66
2022/09/29 04:45:51;;;;;;;0.00;0.00;;;;;;;;;;4972526;28;20070;-66
2022/09/29 04:48:17;;;;;;;0.00;0.00;;;;;;;;;;4972396;28;20046;-66
2022/09/29 04:50:44;;;;;;;0.00;0.00;;;;;;;;;;4972651;28;20066;-67
2022/09/29 04:53:11;;;;;;;0.00;0.00;;;;;;;;;;4972726;28;20043;-66
2022/09/29 04:55:37;;;;;;;1.08;0.00;;;;;;;;;;4972410;28;20054;-66
2022/09/29 04:58:04;;;;;;;0.10;0.10;;;;;;;;;;4972613;28;20546;-67
2022/09/29 05:00:31;;;;;;;1.65;0.10;;;;;;;;;;4972272;28;20051;-67
2022/09/29 05:02:59;;;;;;;0.70;0.20;;;;;;;;;;4972501;28;20133;-66
2022/09/29 05:05:25;;;;;;;0.10;0.00;;;;;;;;;;4972383;28;20046;-67
2022/09/29 05:07:52;;;;;;;0.10;0.10;;;;;;;;;;4972555;28;20062;-67
2022/09/29 05:10:18;;;;;;;0.10;0.10;;;;;;;;;;4972137;28;20055;-66
2022/09/29 05:12:49;;;;;;;0.70;0.10;;;;;;;;;;4974526;28;20054;-66
2022/09/29 05:15:16;;;;;;;0.10;0.00;;;;;;;;;;4975707;28;20072;-67
2022/09/29 05:17:45;;;;;;;0.32;0.10;;;;;;;;;;4975720;28;20047;-66
2022/09/29 05:20:12;;;;;;;0.10;0.10;;;;;;;;;;4975830;28;20042;-66
2022/09/29 05:22:38;;;;;;;0.63;0.10;;;;;;;;;;4975836;28;20057;-66
2022/09/29 05:25:05;;;;;;;0.40;0.10;;;;;;;;;;4975626;28;20407;-66
2022/09/29 05:27:31;;;;;;;0.30;0.20;;;;;;;;;;4975546;28;20046;-67
2022/09/29 05:29:57;;;;;;;0.38;0.30;;;;;;;;;;4975614;28;20058;-67
2022/09/29 05:32:23;;;;;;;0.30;0.20;;;;;;;;;;4975373;28;20046;-67
2022/09/29 05:34:50;;;;;;;1.25;0.10;;;;;;;;;;4975596;28;20050;-67
2022/09/29 05:37:17;;;;;;;0.70;0.10;;;;;;;;;;4975598;28;20047;-67
2022/09/29 05:39:43;;;;;;;0.50;0.20;;;;;;;;;;4975337;28;20516;-67
2022/09/29 05:42:10;;;;;;;0.20;0.20;;;;;;;;;;4975541;28;20050;-67
2022/09/29 05:44:36;;;;;;;0.25;0.25;;;;;;;;;;4975040;28;20066;-66
2022/09/29 05:47:04;;;;;;;0.65;0.20;;;;;;;;;;4974996;28;20494;-67
2022/09/29 05:49:31;;;;;;;0.28;0.25;;;;;;;;;;4974673;28;20042;-67
2022/09/29 05:51:58;;;;;;;1.55;0.60;;;;;;;;;;4974923;28;20487;-67
2022/09/29 05:54:26;;;;;;;0.57;0.50;;;;;;;;;;4974620;28;20380;-67
2022/09/29 05:56:53;;;;;;;0.50;0.50;;;;;;;;;;4973390;28;20042;-67
2022/09/29 05:59:19;;;;;;;0.70;0.70;;;;;;;;;;4974833;28;20051;-67
2022/09/29 06:01:45;;;;;;;1.17;0.73;;;;;;;;;;4974992;28;20059;-67
2022/09/29 06:04:12;;;;;;;0.70;0.70;;;;;;;;;;4974635;28;20047;-67
2022/09/29 06:06:39;;;;;;;1.75;0.95;;;;;;;;;;4974928;28;20055;-67
2022/09/29 06:09:05;;;;;;;1.85;1.02;;;;;;;;;;4974130;28;20070;-66
2022/09/29 06:11:32;;;;;;;1.92;0.90;;;;;;;;;;4974216;28;20045;-67
2022/09/29 06:13:58;;;;;;;1.23;1.05;;;;;;;;;;4974520;28;20081;-67
2022/09/29 06:16:27;;;;;;;1.33;1.23;;;;;;;;;;4974874;28;20053;-67
2022/09/29 06:18:53;;;;;;;1.60;1.27;;;;;;;;;;4974477;28;20113;-67
2022/09/29 06:21:22;;;;;;;1.73;1.40;;;;;;;;;;4974502;28;20502;-67
2022/09/29 06:23:49;;;;;;;1.55;1.45;;;;;;;;;;4973547;28;20053;-66
2022/09/29 06:26:16;;;;;;;2.58;1.67;;;;;;;;;;4974080;28;20047;-65
2022/09/29 06:28:49;;;;;;;1.92;1.80;;;;;;;;;;4974156;28;20046;-66
2022/09/29 06:31:16;;;;;;;1.70;1.60;;;;;;;;;;4974171;28;20043;-67
2022/09/29 06:33:43;;;;;;;2.05;1.88;;;;;;;;;;4974198;28;20510;-66
2022/09/29 06:39:06;;;;;;;2.50;2.30;;;;;;;;;;4973712;28;20055;-66
2022/09/29 06:41:33;;;;;;;2.95;2.70;;;;;;;;;;4974169;28;20047;-67
2022/09/29 06:43:59;;;;;;;2.67;2.47;;;;;;;;;;4973578;28;20051;-66
2022/09/29 06:46:26;;;;;;;2.67;2.47;;;;;;;;;;4973560;28;20043;-67
2022/09/29 06:48:53;;;;;;;2.58;2.35;;;;;;;;;;4973856;28;20051;-67
2022/09/29 06:51:21;;;;;;;4.55;2.55;;;;;;;;;;4973858;28;20061;-67
2022/09/29 06:53:48;;;;;;;2.90;2.70;;;;;;;;;;4973904;28;20053;-67
2022/09/29 06:56:15;;;;;;;5.35;3.15;;;;;;;;;;4973799;28;20525;-67
2022/09/29 06:58:43;;;;;;;3.72;2.70;;;;;;;;;;4974044;28;20046;-67
2022/09/29 07:01:09;;;;;;;2.55;2.35;;;;;;;;;;4973638;28;20065;-67
2022/09/29 07:03:36;;;;;;;2.67;2.47;;;;;;;;;;4973793;28;20078;-67
2022/09/29 07:06:03;;;;;;;2.58;2.38;;;;;;;;;;4973650;28;20396;-67
2022/09/29 07:08:46;;;;;;;2.83;2.33;;;;;;;;;;4973586;28;20569;-67
2022/09/29 07:11:12;;;;;;;2.95;2.70;;;;;;;;;;4973285;28;20054;-67
2022/09/29 07:13:39;;;;;;;2.42;2.22;;;;;;;;;;4973667;28;20043;-67
2022/09/29 07:16:06;;;;;;;2.80;2.60;;;;;;;;;;4973530;28;20050;-67
2022/09/29 07:18:34;;;;;;;2.95;2.67;;;;;;;;;;4973664;28;20051;-67
2022/09/29 07:21:00;;;;;;;3.55;2.35;;;;;;;;;;4973687;28;20477;-67
2022/09/29 07:23:27;;;;;;;2.97;2.65;;;;;;;;;;4973546;28;20050;-67
2022/09/29 07:25:53;;;;;;;2.87;2.27;;;;;;;;;;4973436;28;20568;-67
2022/09/29 07:28:20;;;;;;;2.92;2.60;;;;;;;;;;4973566;28;20051;-67
2022/09/29 07:30:46;;;;;;;2.50;2.30;;;;;;;;;;4973195;28;20055;-67
2022/09/29 07:33:13;;;;;;;2.83;2.42;;;;;;;;;;4973218;28;20051;-67
2022/09/29 07:35:39;;;;;;;4.47;2.38;;;;;;;;;;4973104;28;20047;-67
2022/09/29 07:38:05;;;;;;;2.60;2.40;;;;;;;;;;4973240;28;20051;-67
2022/09/29 07:40:32;;;;;;;2.42;2.22;;;;;;;;;;4973195;28;20046;-67
2022/09/29 07:42:58;;;;;;;2.75;2.55;;;;;;;;;;4973409;28;20062;-67
2022/09/29 07:45:25;;;;;;;2.80;2.60;;;;;;;;;;4973047;28;20058;-67
2022/09/29 07:47:51;;;;;;;3.15;2.85;;;;;;;;;;4972889;28;20593;-67
2022/09/29 07:50:17;;;;;;;3.80;2.92;;;;;;;;;;4972949;28;20055;-67
2022/09/29 07:52:44;;;;;;;3.25;3.05;;;;;;;;;;4972976;28;20046;-67
2022/09/29 07:55:10;;;;;;;4.38;3.10;;;;;;;;;;4972966;28;20062;-67
2022/09/29 07:57:37;;;;;;;4.10;3.03;;;;;;;;;;4972894;28;20055;-67
2022/09/29 08:00:03;;;;;;;3.92;3.60;;;;;;;;;;4973131;28;20051;-67
2022/09/29 08:02:30;;;;;;;3.80;3.50;;;;;;;;;;4973178;28;20047;-67
2022/09/29 08:04:57;;;;;;;4.40;3.00;;;;;;;;;;4972837;28;20526;-67
2022/09/29 08:07:29;;;;;;;3.85;3.40;;;;;;;;;;4973020;28;20289;-67
2022/09/29 08:09:55;;;;;;;4.63;3.45;;;;;;;;;;4972610;28;20406;-67
2022/09/29 08:12:32;;;;;;;5.45;3.40;;;;;;;;;;4972870;28;20541;-67
2022/09/29 08:15:09;;;;;;;3.97;3.47;;;;;;;;;;4972749;28;20129;-67
2022/09/29 08:17:35;;;;;;;4.10;3.70;;;;;;;;;;4972964;28;20055;-67
2022/09/29 08:20:02;;;;;;;4.10;3.75;;;;;;;;;;4972724;28;20410;-67
2022/09/29 08:22:28;;;;;;;4.45;3.70;;;;;;;;;;4972809;28;20069;-67
2022/09/29 08:24:54;;;;;;;4.45;4.03;;;;;;;;;;4972614;28;20470;-67
2022/09/29 08:27:21;;;;;;;5.15;4.32;;;;;;;;;;4972640;28;20051;-67
2022/09/29 08:29:48;;;;;;;6.07;4.88;;;;;;;;;;4972932;28;20050;-67
2022/09/29 08:32:14;;;;;;;7.72;5.90;;;;;;;;;;4972600;28;20061;-67
2022/09/29 08:34:41;;;;;;;7.28;5.80;;;;;;;;;;4972679;28;20062;-67
2022/09/29 08:37:08;;;;;;;5.80;5.30;;;;;;;;;;4972508;28;20506;-67
2022/09/29 08:39:34;;;;;;;6.28;5.70;;;;;;;;;;4972871;28;20047;-67
2022/09/29 08:42:03;;;;;;;6.30;5.57;;;;;;;;;;4972741;28;20077;-67
2022/09/29 08:44:36;;;;;;;5.97;5.47;;;;;;;;;;4972824;28;20047;-67
2022/09/29 08:47:12;;;;;;;6.13;5.57;;;;;;;;;;4973946;28;20062;-67
2022/09/29 08:49:41;;;;;;;5.35;4.80;;;;;;;;;;4976118;28;20499;-67
2022/09/29 08:52:13;;;;;;;5.53;5.13;;;;;;;;;;4976397;28;20055;-67
2022/09/29 08:54:44;;;;;;;5.60;5.20;;;;;;;;;;4976328;28;20051;-67
2022/09/29 08:57:18;;;;;;;6.28;5.68;;;;;;;;;;4976145;28;20499;-67
2022/09/29 09:00:03;;;;;;;6.72;6.00;;;;;;;;;;4976204;28;20051;-67
2022/09/29 09:02:47;;;;;;;6.13;5.63;;;;;;;;;;4976026;28;20046;-67
2022/09/29 09:05:26;;;;;;;5.40;5.00;;;;;;;;;;4976267;28;20047;-67
2022/09/29 09:08:01;;;;;;;5.28;4.78;;;;;;;;;;4975992;28;20053;-67
2022/09/29 09:10:35;;;;;;;4.70;4.30;;;;;;;;;;4975717;28;20055;-67
2022/09/29 09:13:08;;;;;;;5.22;4.68;;;;;;;;;;4975724;28;20047;-67
2022/09/29 09:15:38;;;;;;;5.63;5.03;;;;;;;;;;4975812;28;20062;-67
2022/09/29 09:18:09;;;;;;;6.35;5.22;;;;;;;;;;4976001;28;20082;-67
2022/09/29 09:20:43;;;;;;;5.65;5.25;;;;;;;;;;4975658;28;20499;-67
2022/09/29 09:23:12;;;;;;;5.35;4.82;;;;;;;;;;4975861;28;20054;-67
2022/09/29 09:25:43;;;;;;;6.15;5.25;;;;;;;;;;4975542;28;20414;-67
2022/09/29 09:28:18;;;;;;;6.47;5.88;;;;;;;;;;4975676;28;20051;-67
2022/09/29 09:30:58;;;;;;;5.60;5.07;;;;;;;;;;4975659;28;20054;-67
2022/09/29 09:33:29;;;;;;;6.82;5.50;;;;;;;;;;4975717;28;20047;-67
2022/09/29 09:36:01;;;;;;;6.55;5.95;;;;;;;;;;4975385;28;20047;-67
2022/09/29 09:38:38;;;;;;;6.57;6.00;;;;;;;;;;4975587;28;20057;-67
2022/09/29 09:41:06;;;;;;;5.28;4.88;;;;;;;;;;4975924;28;20413;-67
2022/09/29 09:43:32;;;;;;;;;;;;;;;;;;4975721;28;20058;-67
2022/09/29 09:46:01;;;;;;;5.00;4.60;;;;;;;;;;4975747;28;19948;-67
2022/09/29 09:48:30;;;;;;;4.95;4.57;;;;;;;;;;4975125;28;20051;-67
2022/09/29 09:50:59;;;;;;;4.45;4.05;;;;;;;;;;4975285;28;20058;-67
2022/09/29 09:53:26;;;;;;;5.53;4.03;;;;;;;;;;4975379;28;20054;-67
2022/09/29 09:56:12;;;;;;;4.22;3.92;;;;;;;;;;4975065;28;20089;-67
2022/09/29 09:58:42;;;;;;;3.58;3.28;;;;;;;;;;4974648;28;20057;-67
2022/09/29 10:01:11;;;;;;;4.50;2.75;;;;;;;;;;4974775;28;20495;-67
2022/09/29 10:03:37;;;;;;;2.60;2.40;;;;;;;;;;4975117;28;20074;-67
2022/09/29 10:06:05;;;;;;;2.22;2.13;;;;;;;;;;4974950;28;20051;-67
2022/09/29 10:08:37;;;;;;;2.22;2.03;;;;;;;;;;4974806;28;20043;-67
2022/09/29 10:11:11;;;;;;;2.30;2.20;;;;;;;;;;4974585;28;20058;-67
2022/09/29 10:13:37;;;;;;;1.55;1.48;;;;;;;;;;4974957;28;20450;-67
2022/09/29 10:16:16;;;;;;;1.88;1.30;;;;;;;;;;4974988;28;20063;-67
2022/09/29 10:18:45;;;;;;;1.23;1.23;;;;;;;;;;4975215;28;20050;-67
2022/09/29 10:21:19;;;;;;;1.90;1.80;;;;;;;;;;4974553;28;20517;-67
2022/09/29 10:23:55;;;;;;;2.17;1.95;;;;;;;;;;4974748;28;20055;-67
2022/09/29 10:26:25;;;;;;;1.52;1.38;;;;;;;;;;4974803;28;20050;-67
2022/09/29 10:28:53;;;;;;;1.80;1.70;;;;;;;;;;4974513;28;20066;-67
2022/09/29 10:31:22;;;;;;;1.70;1.60;;;;;;;;;;4974390;28;20055;-67
2022/09/29 10:33:54;;;;;;;1.52;1.35;;;;;;;;;;4974224;28;20067;-67
2022/09/29 10:36:22;;;;;;;1.75;1.65;;;;;;;;;;4974509;28;20054;-67
2022/09/29 10:38:50;;;;;;;2.50;2.13;;;;;;;;;;4974383;28;20047;-67
2022/09/29 10:41:18;;;;;;;1.88;1.77;;;;;;;;;;4974494;28;20450;-67
2022/09/29 10:43:46;;;;;;;2.35;2.15;;;;;;;;;;4974222;28;20497;-67
2022/09/29 10:46:45;;;;;;;2.83;2.42;;;;;;;;;;4974112;28;20491;-67
2022/09/29 10:49:19;;;;;;;2.50;2.40;;;;;;;;;;4944696;28;20059;-67
2022/09/29 10:51:53;;;;;;;2.47;2.33;;;;;;;;;;4974086;28;20494;-67
2022/09/29 10:54:24;;;;;;;2.75;2.55;;;;;;;;;;4973966;28;20051;-67
2022/09/29 10:56:51;;;;;;;2.92;2.67;;;;;;;;;;4974945;28;20047;-67
2022/09/29 10:59:18;;;;;;;2.70;2.50;;;;;;;;;;4973922;28;20053;-67
2022/09/29 11:01:48;;;;;;;3.10;2.50;;;;;;;;;;4974084;28;20046;-67
2022/09/29 11:04:35;;;;;;;2.83;2.60;;;;;;;;;;4974129;28;20055;-67
2022/09/29 11:07:09;;;;;;;2.40;2.30;;;;;;;;;;4974137;28;20050;-67
2022/09/29 11:09:40;;;;;;;2.67;2.20;;;;;;;;;;4972831;28;20054;-67
2022/09/29 11:12:25;;;;;;;2.10;1.90;;;;;;;;;;4973883;28;20062;-67
2022/09/29 11:14:51;;;;;;;2.25;1.65;;;;;;;;;;4973652;28;20043;-67
2022/09/29 11:17:20;;;;;;;2.33;2.10;;;;;;;;;;4973836;28;20050;-67
2022/09/29 11:19:47;;;;;;;1.45;1.42;;;;;;;;;;4973344;28;20510;-67
2022/09/29 11:22:32;;;;;;;2.83;1.70;;;;;;;;;;4973408;28;20050;-67
2022/09/29 11:25:05;;;;;;;1.25;1.10;;;;;;;;;;4973670;28;20173;-67
2022/09/29 11:27:57;;;;;;;2.22;1.10;;;;;;;;;;4973662;28;20047;-67
2022/09/29 11:30:26;;;;;;;2.33;0.95;;;;;;;;;;4950779;28;20049;-68
2022/09/29 11:33:06;;;;;;;1.73;1.10;;;;;;;;;;4973887;28;20051;-67
2022/09/29 11:35:51;;;;;;;0.93;0.93;;;;;;;;;;4973387;28;20117;-68
2022/09/29 11:38:24;;;;;;;1.15;1.00;;;;;;;;;;4973455;28;20046;-67
2022/09/29 11:41:20;;;;;;;1.48;1.13;;;;;;;;;;4973258;28;20487;-67
2022/09/29 11:43:54;;;;;;;1.70;1.15;;;;;;;;;;4935040;28;20059;-67
2022/09/29 11:46:59;;;;;;;1.05;0.85;;;;;;;;;;4964085;28;20055;-67
2022/09/29 11:49:25;;;;;;;1.20;0.90;;;;;;;;;;4932305;29;20074;-67
2022/09/29 11:52:01;;;;;;;1.25;1.08;;;;;;;;;;4932268;29;20078;-67
2022/09/29 11:54:46;;;;;;;1.13;1.02;;;;;;;;;;4946694;28;20047;-67
2022/09/29 11:57:16;;;;;;;1.30;1.20;;;;;;;;;;4973047;28;20061;-68
2022/09/29 11:59:56;;;;;;;1.65;1.30;;;;;;;;;;4973218;28;20051;-67
2022/09/29 12:02:23;;;;;;;1.23;1.15;;;;;;;;;;4973209;28;20073;-67
2022/09/29 12:05:05;;;;;;;1.48;1.13;;;;;;;;;;4973023;28;20101;-68
2022/09/29 12:07:50;;;;;;;1.80;1.33;;;;;;;;;;4972925;28;20061;-68
2022/09/29 12:10:23;;;;;;;1.88;1.20;;;;;;;;;;4972568;28;20065;-67
2022/09/29 12:12:56;;;;;;;1.88;1.08;;;;;;;;;;4973071;28;20050;-68
2022/09/29 12:15:43;;;;;;;0.60;0.60;;;;;;;;;;4971623;28;20518;-68
2022/09/29 12:18:18;;;;;;;1.33;0.60;;;;;;;;;;4972631;28;20051;-68
2022/09/29 12:20:46;;;;;;;1.00;0.60;;;;;;;;;;4973447;28;20487;-68
2022/09/29 12:23:14;;;;;;;1.08;0.75;;;;;;;;;;4976642;28;20414;-68
2022/09/29 12:25:50;;;;;;;1.05;0.60;;;;;;;;;;4976923;28;20137;-68
2022/09/29 12:28:18;;;;;;;1.00;0.53;;;;;;;;;;4976734;28;20054;-68
2022/09/29 12:30:46;;;;;;;1.33;0.88;;;;;;;;;;4976487;28;20058;-68
2022/09/29 12:33:15;;;;;;;1.08;0.88;;;;;;;;;;4976418;28;20046;-68
2022/09/29 12:36:02;;;;;;;1.70;1.00;;;;;;;;;;4976487;28;20055;-68
2022/09/29 12:38:41;;;;;;;1.10;0.98;;;;;;;;;;4976768;28;20047;-68
2022/09/29 12:41:12;;;;;;;1.42;1.00;;;;;;;;;;4976711;28;20145;-67
2022/09/29 12:43:58;;;;;;;1.20;1.10;;;;;;;;;;4976532;28;20416;-67
2022/09/29 12:46:36;;;;;;;0.88;0.88;;;;;;;;;;4976329;28;20066;-67
2022/09/29 12:49:21;;;;;;;1.10;1.00;;;;;;;;;;4976260;28;20054;-67
2022/09/29 12:51:48;;;;;;;2.28;1.05;;;;;;;;;;4976070;28;20057;-67
2022/09/29 12:54:25;;;;;;;1.20;1.00;;;;;;;;;;4976100;28;20051;-67
2022/09/29 12:57:00;;;;;;;1.15;1.10;;;;;;;;;;4976613;28;20365;-67
2022/09/29 12:59:27;;;;;;;3.08;1.90;;;;;;;;;;4976013;28;20043;-67
2022/09/29 13:01:55;;;;;;;2.87;1.70;;;;;;;;;;4976357;28;20065;-67
2022/09/29 13:04:24;;;;;;;2.05;1.90;;;;;;;;;;4975852;28;20506;-67
2022/09/29 13:07:04;;;;;;;1.98;1.88;;;;;;;;;;4976290;28;20051;-67
2022/09/29 13:09:53;;;;;;;3.10;2.13;;;;;;;;;;4975934;28;20062;-67
2022/09/29 13:12:23;;;;;;;2.60;2.10;;;;;;;;;;4975653;28;20047;-67
2022/09/29 13:14:52;;;;;;;2.08;1.92;;;;;;;;;;4975995;28;20057;-67
2022/09/29 13:17:18;;;;;;;2.45;1.90;;;;;;;;;;4975754;28;20051;-67
2022/09/29 13:19:48;;;;;;;2.13;1.83;;;;;;;;;;4975830;28;20050;-67
2022/09/29 13:22:27;;;;;;;2.80;2.50;;;;;;;;;;4975668;28;20471;-67
2022/09/29 13:25:18;;;;;;;2.13;2.03;;;;;;;;;;4975503;28;20058;-67
2022/09/29 13:27:45;;;;;;;2.70;2.50;;;;;;;;;;4946567;28;20062;-67
2022/09/29 13:30:14;;;;;;;2.90;2.70;;;;;;;;;;4973265;28;20043;-67
2022/09/29 13:32:46;;;;;;;3.90;3.50;;;;;;;;;;4975094;28;20054;-67
2022/09/29 13:35:17;;;;;;;3.95;3.35;;;;;;;;;;4975686;28;20054;-68
2022/09/29 13:38:01;;;;;;;3.80;3.40;;;;;;;;;;4975418;28;20085;-67
2022/09/29 13:40:29;;;;;;;4.13;3.75;;;;;;;;;;4975320;28;20053;-67
2022/09/29 13:43:04;;;;;;;4.45;4.05;;;;;;;;;;4975595;28;20061;-67
2022/09/29 13:45:34;;;;;;;3.67;3.47;;;;;;;;;;4975517;28;20070;-67
2022/09/29 13:48:21;;;;;;;5.07;3.70;;;;;;;;;;4975085;28;20059;-67
2022/09/29 13:50:48;;;;;;;4.28;3.75;;;;;;;;;;4975332;28;20272;-67
2022/09/29 13:53:15;;;;;;;;;;;;;;;;;;4975560;28;20050;-67
2022/09/29 13:55:51;;;;;;;4.50;4.10;;;;;;;;;;4975078;28;20377;-67
2022/09/29 13:58:25;;;;;;;4.20;3.90;;;;;;;;;;4975067;28;20043;-67
2022/09/29 14:00:52;;;;;;;4.80;3.30;;;;;;;;;;4974882;28;20050;-67
2022/09/29 14:03:22;;;;;;;3.88;3.28;;;;;;;;;;4975190;28;20054;-67
2022/09/29 14:05:53;;;;;;;4.18;3.40;;;;;;;;;;4975039;28;20057;-67
2022/09/29 14:08:22;;;;;;;3.42;3.13;;;;;;;;;;4974782;28;20495;-67
2022/09/29 14:10:57;;;;;;;3.20;2.90;;;;;;;;;;4974635;28;20059;-67
2022/09/29 14:13:30;;;;;;;3.38;3.08;;;;;;;;;;4974711;28;20050;-67
2022/09/29 14:16:04;;;;;;;3.20;2.72;;;;;;;;;;4974860;28;20054;-67
2022/09/29 14:18:57;;;;;;;3.72;2.90;;;;;;;;;;4974752;28;20074;-67
2022/09/29 14:21:42;;;;;;;4.05;2.83;;;;;;;;;;4948171;28;20055;-67
2022/09/29 14:24:27;;;;;;;4.35;2.55;;;;;;;;;;4974696;28;20057;-67
2022/09/29 14:27:16;;;;;;;3.10;2.80;;;;;;;;;;4974791;28;20093;-67
2022/09/29 14:29:50;;;;;;;4.07;2.63;;;;;;;;;;4974480;28;20053;-67
2022/09/29 14:32:18;;;;;;;2.80;2.60;;;;;;;;;;4974549;28;20043;-68
2022/09/29 14:34:45;;;;;;;3.90;2.42;;;;;;;;;;4974319;28;20059;-67
2022/09/29 14:37:18;;;;;;;3.50;2.45;;;;;;;;;;4974425;28;20427;-67
2022/09/29 14:40:26;;;;;;;3.55;1.98;;;;;;;;;;4974282;28;20501;-67
2022/09/29 14:42:32;;;;;;;2.13;2.03;;;;;;;;;;4974303;28;20046;-67
2022/09/29 14:53:40;;;;;;;2.72;2.10;;;;;;;;;;4974615;28;20442;-67
2022/09/29 14:56:13;;;;;;;2.70;2.50;;;;;;;;;;4974063;28;20089;-67
2022/09/29 14:58:45;;;;;;;2.72;2.45;;;;;;;;;;4973871;28;20050;-67
2022/09/29 15:01:19;;;;;;;2.20;2.10;;;;;;;;;;4973974;28;20061;-68
2022/09/29 15:03:49;;;;;;;2.70;2.50;;;;;;;;;;4973833;28;20047;-67
2022/09/29 15:06:16;;;;;;;2.03;1.92;;;;;;;;;;4973986;28;20050;-68
2022/09/29 15:08:51;;;;;;;2.92;1.92;;;;;;;;;;4974284;28;20046;-68
2022/09/29 15:11:36;;;;;;;2.25;2.08;;;;;;;;;;4973418;28;20065;-68
2022/09/29 15:14:22;;;;;;;2.03;1.90;;;;;;;;;;4973617;28;20495;-66
2022/09/29 15:16:52;;;;;;;2.22;1.98;;;;;;;;;;4973701;28;20054;-66